sensor_id;sensor_type;location;lat;lon;timestamp;temperature;humidity
7814;DHT22;3952;48.364;16.022;2023-08-08T00:01:17;13.80;99.90
7814;DHT22;3952;48.364;16.022;2023-08-08T00:03:44;13.80;99.90
7814;DHT22;3952;48.364;16.022;2023-08-08T00:06:11;13.80;99.90
7814;DHT22;3952;48.364;16.022;2023-08-08T00:08:40;13.70;99.90
7814;DHT22;3952;48.364;16.022;2023-08-08T00:11:07;13.70;99.90
7814;DHT22;3952;48.364;16.022;2023-08-08T00:13:34;13.80;99.90
7814;DHT22;3952;48.364;16.022;2023-08-08T00:16:02;13.80;99.90
7814;DHT22;3952;48.364;16.022;2023-08-08T00:18:29;13.70;99.90
7814;DHT22;3952;48.364;16.022;2023-08-08T00:20:56;13.70;99.90
7814;DHT22;3952;48.364;16.022;2023-08-08T00:23:23;13.70;99.90
7814;DHT22;3952;48.364;16.022;2023-08-08T00:25:52;13.70;99.90
7814;DHT22;3952;48.364;16.022;2023-08-08T00:28:19;13.70;99.90
7814;DHT22;3952;48.364;16.022;2023-08-08T00:30:47;13.80;99.90
7814;DHT22;3952;48.364;16.022;2023-08-08T00:33:14;13.80;99.90
7814;DHT22;3952;48.364;16.022;2023-08-08T00:35:41;13.80;99.90
7814;DHT22;3952;48.364;16.022;2023-08-08T00:38:08;13.70;99.90
7814;DHT22;3952;48.364;16.022;2023-08-08T00:40:35;13.70;99.90
7814;DHT22;3952;48.364;16.022;2023-08-08T00:43:04;13.70;99.90
7814;DHT22;3952;48.364;16.022;2023-08-08T00:45:31;13.70;99.90
7814;DHT22;3952;48.364;16.022;2023-08-08T00:47:58;13.60;99.90
7814;DHT22;3952;48.364;16.022;2023-08-08T00:50:26;13.60;99.90
7814;DHT22;3952;48.364;16.022;2023-08-08T00:52:53;13.60;99.90
7814;DHT22;3952;48.364;16.022;2023-08-08T00:55:21;13.60;99.90
7814;DHT22;3952;48.364;16.022;2023-08-08T00:57:49;13.60;99.90
7814;DHT22;3952;48.364;16.022;2023-08-08T01:00:17;13.60;99.90
7814;DHT22;3952;48.364;16.022;2023-08-08T01:02:45;13.60;99.90
7814;DHT22;3952;48.364;16.022;2023-08-08T01:05:12;13.60;99.90
7814;DHT22;3952;48.364;16.022;2023-08-08T01:07:46;13.60;99.90
7814;DHT22;3952;48.364;16.022;2023-08-08T01:10:17;13.60;99.90
7814;DHT22;3952;48.364;16.022;2023-08-08T01:12:48;13.60;99.90
7814;DHT22;3952;48.364;16.022;2023-08-08T01:15:19;13.60;99.90
7814;DHT22;3952;48.364;16.022;2023-08-08T01:17:47;13.60;99.90
7814;DHT22;3952;48.364;16.022;2023-08-08T01:20:15;13.50;99.90
7814;DHT22;3952;48.364;16.022;2023-08-08T01:22:50;13.50;99.90
7814;DHT22;3952;48.364;16.022;2023-08-08T01:25:24;13.50;99.90
7814;DHT22;3952;48.364;16.022;2023-08-08T01:27:51;13.50;99.90
7814;DHT22;3952;48.364;16.022;2023-08-08T01:30:18;13.50;99.90
7814;DHT22;3952;48.364;16.022;2023-08-08T01:32:45;13.50;99.90
7814;DHT22;3952;48.364;16.022;2023-08-08T01:35:13;13.50;99.90
7814;DHT22;3952;48.364;16.022;2023-08-08T01:37:44;13.50;99.90
7814;DHT22;3952;48.364;16.022;2023-08-08T01:40:16;13.50;99.90
7814;DHT22;3952;48.364;16.022;2023-08-08T01:42:47;13.50;99.90
7814;DHT22;3952;48.364;16.022;2023-08-08T01:45:15;13.50;99.90
7814;DHT22;3952;48.364;16.022;2023-08-08T01:47:49;13.40;99.90
7814;DHT22;3952;48.364;16.022;2023-08-08T01:50:16;13.40;99.90
7814;DHT22;3952;48.364;16.022;2023-08-08T01:52:44;13.40;99.90
7814;DHT22;3952;48.364;16.022;2023-08-08T01:55:12;13.40;99.90
7814;DHT22;3952;48.364;16.022;2023-08-08T01:57:39;13.40;99.90
7814;DHT22;3952;48.364;16.022;2023-08-08T02:00:10;13.30;99.90
7814;DHT22;3952;48.364;16.022;2023-08-08T02:02:38;13.30;99.90
7814;DHT22;3952;48.364;16.022;2023-08-08T02:05:06;13.30;99.90
7814;DHT22;3952;48.364;16.022;2023-08-08T02:07:33;13.20;99.90
7814;DHT22;3952;48.364;16.022;2023-08-08T02:10:00;13.20;99.90
7814;DHT22;3952;48.364;16.022;2023-08-08T02:12:27;13.20;99.90
7814;DHT22;3952;48.364;16.022;2023-08-08T02:14:56;13.20;99.90
7814;DHT22;3952;48.364;16.022;2023-08-08T02:17:25;13.20;99.90
7814;DHT22;3952;48.364;16.022;2023-08-08T02:19:52;13.20;99.90
7814;DHT22;3952;48.364;16.022;2023-08-08T02:22:19;13.20;99.90
7814;DHT22;3952;48.364;16.022;2023-08-08T02:24:47;13.20;99.90
7814;DHT22;3952;48.364;16.022;2023-08-08T02:27:14;13.20;99.90
7814;DHT22;3952;48.364;16.022;2023-08-08T02:29:41;13.20;99.90
7814;DHT22;3952;48.364;16.022;2023-08-08T02:32:08;13.20;99.90
7814;DHT22;3952;48.364;16.022;2023-08-08T02:34:37;13.20;99.90
7814;DHT22;3952;48.364;16.022;2023-08-08T02:37:04;13.20;99.90
7814;DHT22;3952;48.364;16.022;2023-08-08T02:39:31;13.20;99.90
7814;DHT22;3952;48.364;16.022;2023-08-08T02:41:59;13.20;99.90
7814;DHT22;3952;48.364;16.022;2023-08-08T02:44:26;13.10;99.90
7814;DHT22;3952;48.364;16.022;2023-08-08T02:46:53;13.10;99.90
7814;DHT22;3952;48.364;16.022;2023-08-08T02:49:20;13.10;99.90
7814;DHT22;3952;48.364;16.022;2023-08-08T02:51:49;13.10;99.90
7814;DHT22;3952;48.364;16.022;2023-08-08T02:54:16;13.10;99.90
7814;DHT22;3952;48.364;16.022;2023-08-08T02:56:43;13.10;99.90
7814;DHT22;3952;48.364;16.022;2023-08-08T02:59:10;13.10;99.90
7814;DHT22;3952;48.364;16.022;2023-08-08T03:01:38;13.10;99.90
7814;DHT22;3952;48.364;16.022;2023-08-08T03:04:05;13.10;99.90
7814;DHT22;3952;48.364;16.022;2023-08-08T03:06:33;13.00;99.90
7814;DHT22;3952;48.364;16.022;2023-08-08T03:09:01;13.00;99.90
7814;DHT22;3952;48.364;16.022;2023-08-08T03:11:29;13.00;99.90
7814;DHT22;3952;48.364;16.022;2023-08-08T03:13:56;13.00;99.90
7814;DHT22;3952;48.364;16.022;2023-08-08T03:16:23;13.00;99.90
7814;DHT22;3952;48.364;16.022;2023-08-08T03:18:50;12.90;99.90
7814;DHT22;3952;48.364;16.022;2023-08-08T03:21:17;12.90;99.90
7814;DHT22;3952;48.364;16.022;2023-08-08T03:23:45;12.90;99.90
7814;DHT22;3952;48.364;16.022;2023-08-08T03:26:13;12.90;99.90
7814;DHT22;3952;48.364;16.022;2023-08-08T03:28:40;12.90;99.90
7814;DHT22;3952;48.364;16.022;2023-08-08T03:31:08;12.90;99.90
7814;DHT22;3952;48.364;16.022;2023-08-08T03:33:35;12.90;99.90
7814;DHT22;3952;48.364;16.022;2023-08-08T03:36:02;12.90;99.90
7814;DHT22;3952;48.364;16.022;2023-08-08T03:38:30;12.90;99.90
7814;DHT22;3952;48.364;16.022;2023-08-08T03:40:57;12.80;99.90
7814;DHT22;3952;48.364;16.022;2023-08-08T03:43:25;12.90;99.90
7814;DHT22;3952;48.364;16.022;2023-08-08T03:45:53;12.90;99.90
7814;DHT22;3952;48.364;16.022;2023-08-08T03:48:20;12.80;99.90
7814;DHT22;3952;48.364;16.022;2023-08-08T03:50:47;12.90;99.90
7814;DHT22;3952;48.364;16.022;2023-08-08T03:53:14;12.90;99.90
7814;DHT22;3952;48.364;16.022;2023-08-08T03:55:41;12.90;99.90
7814;DHT22;3952;48.364;16.022;2023-08-08T03:58:09;12.90;99.90
7814;DHT22;3952;48.364;16.022;2023-08-08T04:00:37;12.90;99.90
7814;DHT22;3952;48.364;16.022;2023-08-08T04:03:13;12.90;99.90
7814;DHT22;3952;48.364;16.022;2023-08-08T04:05:40;12.90;99.90
7814;DHT22;3952;48.364;16.022;2023-08-08T04:08:07;12.90;99.90
7814;DHT22;3952;48.364;16.022;2023-08-08T04:10:34;13.00;99.90
7814;DHT22;3952;48.364;16.022;2023-08-08T04:13:02;13.00;99.90
7814;DHT22;3952;48.364;16.022;2023-08-08T04:15:29;13.00;99.90
7814;DHT22;3952;48.364;16.022;2023-08-08T04:17:58;13.00;99.90
7814;DHT22;3952;48.364;16.022;2023-08-08T04:20:25;13.00;99.90
7814;DHT22;3952;48.364;16.022;2023-08-08T04:22:52;13.00;99.90
7814;DHT22;3952;48.364;16.022;2023-08-08T04:25:19;13.10;99.90
7814;DHT22;3952;48.364;16.022;2023-08-08T04:27:47;13.10;99.90
7814;DHT22;3952;48.364;16.022;2023-08-08T04:30:14;13.10;99.90
7814;DHT22;3952;48.364;16.022;2023-08-08T04:32:41;13.20;99.90
7814;DHT22;3952;48.364;16.022;2023-08-08T04:35:10;13.20;99.90
7814;DHT22;3952;48.364;16.022;2023-08-08T04:37:37;13.20;99.90
7814;DHT22;3952;48.364;16.022;2023-08-08T04:40:06;13.20;99.90
7814;DHT22;3952;48.364;16.022;2023-08-08T04:42:34;13.30;99.90
7814;DHT22;3952;48.364;16.022;2023-08-08T04:45:01;13.30;99.90
7814;DHT22;3952;48.364;16.022;2023-08-08T04:47:28;13.30;99.90
7814;DHT22;3952;48.364;16.022;2023-08-08T04:49:56;13.30;99.90
7814;DHT22;3952;48.364;16.022;2023-08-08T04:52:24;13.40;99.90
7814;DHT22;3952;48.364;16.022;2023-08-08T04:54:52;13.40;99.90
7814;DHT22;3952;48.364;16.022;2023-08-08T04:57:19;13.40;99.90
7814;DHT22;3952;48.364;16.022;2023-08-08T04:59:46;13.40;99.90
7814;DHT22;3952;48.364;16.022;2023-08-08T05:02:13;13.50;99.90
7814;DHT22;3952;48.364;16.022;2023-08-08T05:04:40;13.60;99.90
7814;DHT22;3952;48.364;16.022;2023-08-08T05:07:08;13.60;99.90
7814;DHT22;3952;48.364;16.022;2023-08-08T05:09:36;13.70;99.90
7814;DHT22;3952;48.364;16.022;2023-08-08T05:12:04;13.70;99.90
7814;DHT22;3952;48.364;16.022;2023-08-08T05:14:31;13.70;99.90
7814;DHT22;3952;48.364;16.022;2023-08-08T05:16:58;13.70;99.90
7814;DHT22;3952;48.364;16.022;2023-08-08T05:19:26;13.80;99.90
7814;DHT22;3952;48.364;16.022;2023-08-08T05:21:53;13.80;99.90
7814;DHT22;3952;48.364;16.022;2023-08-08T05:24:20;13.90;99.90
7814;DHT22;3952;48.364;16.022;2023-08-08T05:26:49;13.90;99.90
7814;DHT22;3952;48.364;16.022;2023-08-08T05:29:16;13.90;99.90
7814;DHT22;3952;48.364;16.022;2023-08-08T05:31:44;14.00;99.90
7814;DHT22;3952;48.364;16.022;2023-08-08T05:34:11;14.00;99.90
7814;DHT22;3952;48.364;16.022;2023-08-08T05:36:38;14.00;99.90
7814;DHT22;3952;48.364;16.022;2023-08-08T05:39:05;14.00;99.90
7814;DHT22;3952;48.364;16.022;2023-08-08T05:41:35;14.00;99.90
7814;DHT22;3952;48.364;16.022;2023-08-08T05:44:04;14.10;99.90
7814;DHT22;3952;48.364;16.022;2023-08-08T05:46:31;14.10;99.90
7814;DHT22;3952;48.364;16.022;2023-08-08T05:48:58;14.20;99.90
7814;DHT22;3952;48.364;16.022;2023-08-08T05:51:27;14.20;99.90
7814;DHT22;3952;48.364;16.022;2023-08-08T05:53:54;14.30;99.90
7814;DHT22;3952;48.364;16.022;2023-08-08T05:56:21;14.40;99.90
7814;DHT22;3952;48.364;16.022;2023-08-08T05:58:48;14.40;99.90
7814;DHT22;3952;48.364;16.022;2023-08-08T06:01:17;14.50;99.90
7814;DHT22;3952;48.364;16.022;2023-08-08T06:03:44;14.60;99.90
7814;DHT22;3952;48.364;16.022;2023-08-08T06:06:12;14.70;99.90
7814;DHT22;3952;48.364;16.022;2023-08-08T06:08:40;14.80;99.90
7814;DHT22;3952;48.364;16.022;2023-08-08T06:11:07;14.90;99.90
7814;DHT22;3952;48.364;16.022;2023-08-08T06:13:34;15.00;99.90
7814;DHT22;3952;48.364;16.022;2023-08-08T06:16:01;15.10;99.90
7814;DHT22;3952;48.364;16.022;2023-08-08T06:18:33;15.20;99.90
7814;DHT22;3952;48.364;16.022;2023-08-08T06:21:01;15.30;99.90
7814;DHT22;3952;48.364;16.022;2023-08-08T06:23:28;15.30;99.90
7814;DHT22;3952;48.364;16.022;2023-08-08T06:25:55;15.40;99.90
7814;DHT22;3952;48.364;16.022;2023-08-08T06:28:22;15.40;99.90
7814;DHT22;3952;48.364;16.022;2023-08-08T06:30:49;15.40;99.90
7814;DHT22;3952;48.364;16.022;2023-08-08T06:33:17;15.50;99.90
7814;DHT22;3952;48.364;16.022;2023-08-08T06:35:45;15.50;99.90
7814;DHT22;3952;48.364;16.022;2023-08-08T06:38:12;15.50;99.90
7814;DHT22;3952;48.364;16.022;2023-08-08T06:40:39;15.60;99.90
7814;DHT22;3952;48.364;16.022;2023-08-08T06:43:07;15.60;99.90
7814;DHT22;3952;48.364;16.022;2023-08-08T06:45:34;15.70;99.90
7814;DHT22;3952;48.364;16.022;2023-08-08T06:48:01;15.70;99.90
7814;DHT22;3952;48.364;16.022;2023-08-08T06:50:29;15.80;99.90
7814;DHT22;3952;48.364;16.022;2023-08-08T06:52:57;15.80;99.90
7814;DHT22;3952;48.364;16.022;2023-08-08T06:55:24;15.90;99.90
7814;DHT22;3952;48.364;16.022;2023-08-08T06:57:52;15.90;99.90
7814;DHT22;3952;48.364;16.022;2023-08-08T07:00:19;16.00;99.90
7814;DHT22;3952;48.364;16.022;2023-08-08T07:02:46;16.10;99.90
7814;DHT22;3952;48.364;16.022;2023-08-08T07:05:13;16.20;99.90
7814;DHT22;3952;48.364;16.022;2023-08-08T07:07:41;16.20;99.90
7814;DHT22;3952;48.364;16.022;2023-08-08T07:10:10;16.30;99.90
7814;DHT22;3952;48.364;16.022;2023-08-08T07:12:38;16.40;99.90
7814;DHT22;3952;48.364;16.022;2023-08-08T07:15:07;16.40;99.90
7814;DHT22;3952;48.364;16.022;2023-08-08T07:17:34;16.50;99.90
7814;DHT22;3952;48.364;16.022;2023-08-08T07:20:02;16.50;99.90
7814;DHT22;3952;48.364;16.022;2023-08-08T07:22:31;16.60;99.90
7814;DHT22;3952;48.364;16.022;2023-08-08T07:24:59;16.60;99.90
7814;DHT22;3952;48.364;16.022;2023-08-08T07:27:27;16.60;99.90
7814;DHT22;3952;48.364;16.022;2023-08-08T07:29:55;16.70;99.90
7814;DHT22;3952;48.364;16.022;2023-08-08T07:32:22;16.70;99.90
7814;DHT22;3952;48.364;16.022;2023-08-08T07:34:49;16.80;99.90
7814;DHT22;3952;48.364;16.022;2023-08-08T07:37:15;16.80;99.90
7814;DHT22;3952;48.364;16.022;2023-08-08T07:39:42;16.90;99.90
7814;DHT22;3952;48.364;16.022;2023-08-08T07:42:09;16.90;99.90
7814;DHT22;3952;48.364;16.022;2023-08-08T07:44:38;17.00;99.90
7814;DHT22;3952;48.364;16.022;2023-08-08T07:47:06;17.10;99.90
7814;DHT22;3952;48.364;16.022;2023-08-08T07:49:33;17.10;99.90
7814;DHT22;3952;48.364;16.022;2023-08-08T07:52:00;17.10;99.90
7814;DHT22;3952;48.364;16.022;2023-08-08T07:54:27;17.10;99.90
7814;DHT22;3952;48.364;16.022;2023-08-08T07:56:54;17.10;99.90
7814;DHT22;3952;48.364;16.022;2023-08-08T07:59:22;17.10;99.90
7814;DHT22;3952;48.364;16.022;2023-08-08T08:01:51;17.10;99.90
7814;DHT22;3952;48.364;16.022;2023-08-08T08:04:18;17.10;99.90
7814;DHT22;3952;48.364;16.022;2023-08-08T08:06:45;17.10;99.90
7814;DHT22;3952;48.364;16.022;2023-08-08T08:09:13;17.10;99.90
7814;DHT22;3952;48.364;16.022;2023-08-08T08:11:40;17.10;99.90
7814;DHT22;3952;48.364;16.022;2023-08-08T08:14:07;17.10;99.90
7814;DHT22;3952;48.364;16.022;2023-08-08T08:16:34;17.20;99.90
7814;DHT22;3952;48.364;16.022;2023-08-08T08:19:03;17.30;99.90
7814;DHT22;3952;48.364;16.022;2023-08-08T08:21:30;17.50;99.90
7814;DHT22;3952;48.364;16.022;2023-08-08T08:23:57;17.60;99.90
7814;DHT22;3952;48.364;16.022;2023-08-08T08:26:25;17.60;99.90
7814;DHT22;3952;48.364;16.022;2023-08-08T08:28:53;17.70;99.90
7814;DHT22;3952;48.364;16.022;2023-08-08T08:31:21;17.80;99.90
7814;DHT22;3952;48.364;16.022;2023-08-08T08:33:48;18.00;99.90
7814;DHT22;3952;48.364;16.022;2023-08-08T08:36:17;18.10;99.90
7814;DHT22;3952;48.364;16.022;2023-08-08T08:38:44;18.20;99.90
7814;DHT22;3952;48.364;16.022;2023-08-08T08:41:15;18.30;99.90
7814;DHT22;3952;48.364;16.022;2023-08-08T08:43:44;18.40;99.90
7814;DHT22;3952;48.364;16.022;2023-08-08T08:46:12;18.40;99.90
7814;DHT22;3952;48.364;16.022;2023-08-08T08:48:41;18.50;99.90
7814;DHT22;3952;48.364;16.022;2023-08-08T08:51:09;18.60;99.90
7814;DHT22;3952;48.364;16.022;2023-08-08T08:53:38;18.70;99.90
7814;DHT22;3952;48.364;16.022;2023-08-08T08:56:09;18.90;99.90
7814;DHT22;3952;48.364;16.022;2023-08-08T08:58:36;19.00;99.90
7814;DHT22;3952;48.364;16.022;2023-08-08T09:01:04;19.20;99.90
7814;DHT22;3952;48.364;16.022;2023-08-08T09:03:31;19.40;99.90
7814;DHT22;3952;48.364;16.022;2023-08-08T09:05:59;19.50;99.90
7814;DHT22;3952;48.364;16.022;2023-08-08T09:08:27;19.70;99.90
7814;DHT22;3952;48.364;16.022;2023-08-08T09:10:56;19.80;99.90
7814;DHT22;3952;48.364;16.022;2023-08-08T09:13:23;19.90;99.90
7814;DHT22;3952;48.364;16.022;2023-08-08T09:15:52;20.20;99.90
7814;DHT22;3952;48.364;16.022;2023-08-08T09:18:23;20.40;99.90
7814;DHT22;3952;48.364;16.022;2023-08-08T09:20:54;20.40;99.90
7814;DHT22;3952;48.364;16.022;2023-08-08T09:23:23;20.40;99.90
7814;DHT22;3952;48.364;16.022;2023-08-08T09:25:51;20.40;99.90
7814;DHT22;3952;48.364;16.022;2023-08-08T09:28:19;20.60;99.90
7814;DHT22;3952;48.364;16.022;2023-08-08T09:30:47;20.70;99.90
7814;DHT22;3952;48.364;16.022;2023-08-08T09:33:14;20.90;99.90
7814;DHT22;3952;48.364;16.022;2023-08-08T09:35:41;21.10;99.90
7814;DHT22;3952;48.364;16.022;2023-08-08T09:38:09;21.20;99.90
7814;DHT22;3952;48.364;16.022;2023-08-08T09:40:36;21.30;99.90
7814;DHT22;3952;48.364;16.022;2023-08-08T09:43:04;21.50;99.90
7814;DHT22;3952;48.364;16.022;2023-08-08T09:45:38;21.60;99.90
7814;DHT22;3952;48.364;16.022;2023-08-08T09:48:07;21.60;99.90
7814;DHT22;3952;48.364;16.022;2023-08-08T09:50:35;21.50;99.90
7814;DHT22;3952;48.364;16.022;2023-08-08T09:53:03;21.50;99.90
7814;DHT22;3952;48.364;16.022;2023-08-08T09:55:31;21.60;99.90
7814;DHT22;3952;48.364;16.022;2023-08-08T09:57:59;21.70;99.90
7814;DHT22;3952;48.364;16.022;2023-08-08T10:00:27;21.90;99.90
7814;DHT22;3952;48.364;16.022;2023-08-08T10:02:58;22.00;99.90
7814;DHT22;3952;48.364;16.022;2023-08-08T10:05:26;22.10;99.90
7814;DHT22;3952;48.364;16.022;2023-08-08T10:07:54;22.10;99.90
7814;DHT22;3952;48.364;16.022;2023-08-08T10:10:22;22.00;99.90
7814;DHT22;3952;48.364;16.022;2023-08-08T10:12:50;22.10;99.90
7814;DHT22;3952;48.364;16.022;2023-08-08T10:15:17;22.20;99.90
7814;DHT22;3952;48.364;16.022;2023-08-08T10:17:44;22.40;99.90
7814;DHT22;3952;48.364;16.022;2023-08-08T10:20:14;22.50;99.90
7814;DHT22;3952;48.364;16.022;2023-08-08T10:22:47;22.60;99.90
7814;DHT22;3952;48.364;16.022;2023-08-08T10:25:23;22.60;99.90
7814;DHT22;3952;48.364;16.022;2023-08-08T10:28:02;22.60;99.90
7814;DHT22;3952;48.364;16.022;2023-08-08T10:30:42;22.70;99.90
7814;DHT22;3952;48.364;16.022;2023-08-08T10:33:18;22.80;99.90
7814;DHT22;3952;48.364;16.022;2023-08-08T10:36:01;22.80;99.90
7814;DHT22;3952;48.364;16.022;2023-08-08T10:38:40;22.80;99.90
7814;DHT22;3952;48.364;16.022;2023-08-08T10:41:10;22.90;99.90
7814;DHT22;3952;48.364;16.022;2023-08-08T10:43:38;22.90;99.90
7814;DHT22;3952;48.364;16.022;2023-08-08T10:46:07;22.90;99.90
7814;DHT22;3952;48.364;16.022;2023-08-08T10:48:34;22.90;99.90
7814;DHT22;3952;48.364;16.022;2023-08-08T10:51:07;23.00;99.90
7814;DHT22;3952;48.364;16.022;2023-08-08T10:53:36;23.00;99.90
7814;DHT22;3952;48.364;16.022;2023-08-08T10:56:04;23.60;99.90
7814;DHT22;3952;48.364;16.022;2023-08-08T10:58:36;23.10;99.90
7814;DHT22;3952;48.364;16.022;2023-08-08T11:01:04;23.10;99.90
7814;DHT22;3952;48.364;16.022;2023-08-08T11:03:35;23.10;99.90
7814;DHT22;3952;48.364;16.022;2023-08-08T11:06:04;23.20;99.90
7814;DHT22;3952;48.364;16.022;2023-08-08T11:08:32;23.20;99.90
7814;DHT22;3952;48.364;16.022;2023-08-08T11:11:01;23.30;99.90
7814;DHT22;3952;48.364;16.022;2023-08-08T11:13:29;23.30;99.90
7814;DHT22;3952;48.364;16.022;2023-08-08T11:15:56;23.20;99.90
7814;DHT22;3952;48.364;16.022;2023-08-08T11:18:24;23.20;99.90
7814;DHT22;3952;48.364;16.022;2023-08-08T11:20:51;23.30;99.90
7814;DHT22;3952;48.364;16.022;2023-08-08T11:23:20;23.40;99.90
7814;DHT22;3952;48.364;16.022;2023-08-08T11:25:47;23.50;99.90
7814;DHT22;3952;48.364;16.022;2023-08-08T11:28:16;23.40;99.90
7814;DHT22;3952;48.364;16.022;2023-08-08T11:30:44;23.50;99.90
7814;DHT22;3952;48.364;16.022;2023-08-08T11:33:13;23.50;99.90
7814;DHT22;3952;48.364;16.022;2023-08-08T11:35:44;23.60;99.90
7814;DHT22;3952;48.364;16.022;2023-08-08T11:38:15;23.60;99.90
7814;DHT22;3952;48.364;16.022;2023-08-08T11:40:44;23.60;99.90
7814;DHT22;3952;48.364;16.022;2023-08-08T11:43:12;23.60;99.90
7814;DHT22;3952;48.364;16.022;2023-08-08T11:45:40;23.60;99.90
7814;DHT22;3952;48.364;16.022;2023-08-08T11:48:09;23.60;99.90
7814;DHT22;3952;48.364;16.022;2023-08-08T11:50:37;23.60;99.90
7814;DHT22;3952;48.364;16.022;2023-08-08T11:53:08;23.60;99.90
7814;DHT22;3952;48.364;16.022;2023-08-08T11:55:36;23.50;99.90
7814;DHT22;3952;48.364;16.022;2023-08-08T11:58:05;23.50;99.90
7814;DHT22;3952;48.364;16.022;2023-08-08T12:00:32;23.50;99.90
7814;DHT22;3952;48.364;16.022;2023-08-08T12:03:01;23.50;99.90
7814;DHT22;3952;48.364;16.022;2023-08-08T12:05:30;23.60;99.90
7814;DHT22;3952;48.364;16.022;2023-08-08T12:08:05;23.90;99.90
7814;DHT22;3952;48.364;16.022;2023-08-08T12:10:32;23.50;99.90
7814;DHT22;3952;48.364;16.022;2023-08-08T12:12:59;23.40;99.90
7814;DHT22;3952;48.364;16.022;2023-08-08T12:15:31;23.30;99.90
7814;DHT22;3952;48.364;16.022;2023-08-08T12:17:59;23.30;99.90
7814;DHT22;3952;48.364;16.022;2023-08-08T12:20:28;23.30;99.90
7814;DHT22;3952;48.364;16.022;2023-08-08T12:22:56;23.30;99.90
7814;DHT22;3952;48.364;16.022;2023-08-08T12:25:23;23.40;99.90
7814;DHT22;3952;48.364;16.022;2023-08-08T12:27:51;23.40;99.90
7814;DHT22;3952;48.364;16.022;2023-08-08T12:30:18;23.40;99.90
7814;DHT22;3952;48.364;16.022;2023-08-08T12:32:47;23.50;99.90
7814;DHT22;3952;48.364;16.022;2023-08-08T12:35:14;23.60;99.90
7814;DHT22;3952;48.364;16.022;2023-08-08T12:37:42;23.60;99.90
7814;DHT22;3952;48.364;16.022;2023-08-08T12:40:10;23.50;99.90
7814;DHT22;3952;48.364;16.022;2023-08-08T12:42:38;23.40;99.90
7814;DHT22;3952;48.364;16.022;2023-08-08T12:45:06;23.40;99.90
7814;DHT22;3952;48.364;16.022;2023-08-08T12:47:36;23.50;99.90
7814;DHT22;3952;48.364;16.022;2023-08-08T12:50:06;23.50;99.90
7814;DHT22;3952;48.364;16.022;2023-08-08T12:52:33;23.40;99.90
7814;DHT22;3952;48.364;16.022;2023-08-08T12:55:01;23.40;99.90
7814;DHT22;3952;48.364;16.022;2023-08-08T12:57:29;23.40;99.90
7814;DHT22;3952;48.364;16.022;2023-08-08T12:59:56;23.50;99.90
7814;DHT22;3952;48.364;16.022;2023-08-08T13:02:23;23.50;99.90
7814;DHT22;3952;48.364;16.022;2023-08-08T13:04:50;23.50;99.90
7814;DHT22;3952;48.364;16.022;2023-08-08T13:07:19;23.60;99.90
7814;DHT22;3952;48.364;16.022;2023-08-08T13:09:46;23.60;99.90
7814;DHT22;3952;48.364;16.022;2023-08-08T13:12:13;23.60;99.90
7814;DHT22;3952;48.364;16.022;2023-08-08T13:14:41;23.60;99.90
7814;DHT22;3952;48.364;16.022;2023-08-08T13:17:08;23.60;99.90
7814;DHT22;3952;48.364;16.022;2023-08-08T13:19:36;23.60;99.90
7814;DHT22;3952;48.364;16.022;2023-08-08T13:22:04;23.60;99.90
7814;DHT22;3952;48.364;16.022;2023-08-08T13:24:32;23.50;99.90
7814;DHT22;3952;48.364;16.022;2023-08-08T13:26:59;23.50;99.90
7814;DHT22;3952;48.364;16.022;2023-08-08T13:29:27;23.50;99.90
7814;DHT22;3952;48.364;16.022;2023-08-08T13:31:54;23.50;99.90
7814;DHT22;3952;48.364;16.022;2023-08-08T13:34:21;23.50;99.90
7814;DHT22;3952;48.364;16.022;2023-08-08T13:36:48;23.50;99.90
7814;DHT22;3952;48.364;16.022;2023-08-08T13:39:15;23.50;99.90
7814;DHT22;3952;48.364;16.022;2023-08-08T13:41:44;23.60;99.90
7814;DHT22;3952;48.364;16.022;2023-08-08T13:44:11;23.60;99.90
7814;DHT22;3952;48.364;16.022;2023-08-08T13:46:39;23.60;99.90
7814;DHT22;3952;48.364;16.022;2023-08-08T13:49:06;23.50;99.90
7814;DHT22;3952;48.364;16.022;2023-08-08T13:51:33;23.50;99.80
7814;DHT22;3952;48.364;16.022;2023-08-08T13:54:01;23.40;99.90
7814;DHT22;3952;48.364;16.022;2023-08-08T13:56:28;23.30;99.90
7814;DHT22;3952;48.364;16.022;2023-08-08T13:58:57;23.20;99.90
7814;DHT22;3952;48.364;16.022;2023-08-08T14:01:24;23.10;99.90
7814;DHT22;3952;48.364;16.022;2023-08-08T14:03:51;23.10;99.90
7814;DHT22;3952;48.364;16.022;2023-08-08T14:06:19;23.00;99.90
7814;DHT22;3952;48.364;16.022;2023-08-08T14:08:46;23.00;99.90
7814;DHT22;3952;48.364;16.022;2023-08-08T14:11:14;23.10;99.90
7814;DHT22;3952;48.364;16.022;2023-08-08T14:13:41;23.20;99.90
7814;DHT22;3952;48.364;16.022;2023-08-08T14:16:09;23.20;99.50
7814;DHT22;3952;48.364;16.022;2023-08-08T14:18:37;23.30;99.20
7814;DHT22;3952;48.364;16.022;2023-08-08T14:21:04;23.50;99.90
7814;DHT22;3952;48.364;16.022;2023-08-08T14:23:31;23.50;99.90
7814;DHT22;3952;48.364;16.022;2023-08-08T14:25:58;23.50;99.60
7814;DHT22;3952;48.364;16.022;2023-08-08T14:28:26;23.50;99.80
7814;DHT22;3952;48.364;16.022;2023-08-08T14:30:53;23.50;99.90
7814;DHT22;3952;48.364;16.022;2023-08-08T14:33:22;23.50;99.60
7814;DHT22;3952;48.364;16.022;2023-08-08T14:35:49;23.40;99.30
7814;DHT22;3952;48.364;16.022;2023-08-08T14:38:16;23.40;99.90
7814;DHT22;3952;48.364;16.022;2023-08-08T14:40:43;23.40;98.70
7814;DHT22;3952;48.364;16.022;2023-08-08T14:43:11;23.50;99.80
7814;DHT22;3952;48.364;16.022;2023-08-08T14:45:38;23.50;99.90
7814;DHT22;3952;48.364;16.022;2023-08-08T14:48:06;23.50;99.90
7814;DHT22;3952;48.364;16.022;2023-08-08T14:50:35;23.50;98.40
7814;DHT22;3952;48.364;16.022;2023-08-08T14:53:02;23.50;99.60
7814;DHT22;3952;48.364;16.022;2023-08-08T14:55:29;23.50;98.50
7814;DHT22;3952;48.364;16.022;2023-08-08T14:57:56;23.40;98.30
7814;DHT22;3952;48.364;16.022;2023-08-08T15:00:24;23.40;99.10
7814;DHT22;3952;48.364;16.022;2023-08-08T15:02:51;23.30;99.30
7814;DHT22;3952;48.364;16.022;2023-08-08T15:05:18;23.30;99.40
7814;DHT22;3952;48.364;16.022;2023-08-08T15:07:47;23.20;98.50
7814;DHT22;3952;48.364;16.022;2023-08-08T15:10:14;23.20;99.30
7814;DHT22;3952;48.364;16.022;2023-08-08T15:12:42;23.10;99.20
7814;DHT22;3952;48.364;16.022;2023-08-08T15:15:10;23.10;99.80
7814;DHT22;3952;48.364;16.022;2023-08-08T15:17:37;23.10;97.60
7814;DHT22;3952;48.364;16.022;2023-08-08T15:20:06;23.00;98.50
7814;DHT22;3952;48.364;16.022;2023-08-08T15:22:33;23.00;98.70
7814;DHT22;3952;48.364;16.022;2023-08-08T15:25:02;23.00;99.20
7814;DHT22;3952;48.364;16.022;2023-08-08T15:27:29;23.00;99.90
7814;DHT22;3952;48.364;16.022;2023-08-08T15:29:56;23.10;99.90
7814;DHT22;3952;48.364;16.022;2023-08-08T15:32:24;23.10;99.90
7814;DHT22;3952;48.364;16.022;2023-08-08T15:34:51;23.10;99.50
7814;DHT22;3952;48.364;16.022;2023-08-08T15:37:18;23.10;98.90
7814;DHT22;3952;48.364;16.022;2023-08-08T15:39:45;23.00;97.60
7814;DHT22;3952;48.364;16.022;2023-08-08T15:42:14;23.00;98.00
7814;DHT22;3952;48.364;16.022;2023-08-08T15:44:41;23.10;98.90
7814;DHT22;3952;48.364;16.022;2023-08-08T15:47:08;23.10;99.10
7814;DHT22;3952;48.364;16.022;2023-08-08T15:49:36;23.20;99.00